Terminal Aerodrome Forecast
Issued by NWS Blacksburg, VA

Current Version | Previous Version | Graphics & Text | Print | Product List | Glossary On
Versions: 1 2 3 4 5 6 7 8 9 10 11 12 13 14 15 16 17 18 19 20 21 22 23 24 25 26 27 28 29 30 31 32
000
FTUS41 KRNK 221240 AAA
TAFBLF
TAF AMD
KBLF 221240Z 2213/2312 11003KT P6SM SCT012 BKN035
      TEMPO 2213/2215 BKN012
     FM221600 14005KT P6SM BKN040
     FM222300 17004KT P6SM SCT045 BKN250
     FM230700 22003KT 4SM BR BKN250=

USA.gov is the U.S. government's official web portal to all federal, state and local government web resources and services.